Flugplatz Günzburg-Donauried

Für EDMG sind keine METAR/TAF Berichte vorhanden.
Es werden die Flugwettermeldungen vom Flugplatz Laupheim Airport in 40 km Entfernung angezeigt.

Bericht für ETHL

vom 26.09. um 23:20 UTC

Wind 14 kt aus 230°

Sichtweite 8000 m

Temperatur 7.0°C

Taupunkt 4.0°C

Luftfeuchtigkeit 81%

Luftdruck 1002 hPa

ETHL 262320Z AUTO 23014KT 8000 // ////// 07/04 Q1002 ///
Keine Prognose (TAF) verfügbar.
Impressum